Timeline UpdatesTrip UpdatesNews PostsPvt Posts♥♥Travel TipsAdmin PostsConv PostsFollowed PostsChat RequestsBlog PostsPNR Posts

Disclaimer
Search
 
 
Sat Nov 1, 2014 17:31:51 ISTHomeTrainsΣChainsAtlasPNRForumGalleryNewsFAQTripsMembersLoginFeedback
No Recent News for this Train
Other Trains in the News **new
Latest...
Train.No.17482 Tirupati - Bilaspur Express scheduled to depart Tirupati at 10 35 hrs on 27th October, 2013 is cancelled.
Sat Oct 26, 2013 (06:33PM)
⇐ Return Journey: Train# 17481

17482/Tirupati-Bilaspur Express

Time-Table HAS CHANGED.
Sep 01 2014 (11:40PM)
Change Departure Station:
Change Arrival Station:
Post a Train Travel TipPost a Train Travel Tip **new
Post a Comment/Question/Picture/VideoPost a Comment/Question/Picture/Video
Pantry/Catering
???
Loco/Rake Reversals
VSKP/Visakhapatnam Junction (8); R/Raipur Junction (6);
RSA - Rake Sharing
Rake/Coach Composition
ENG-SLR-GS-GS-GS-B1-S5-S4-S3-S2-S1-GS-GS-GS-SLR (TPTY-VSKP & R-BSP); ; ENG-SLR-GS-GS-GS-S1-S2-S3-S4-S5-B1-GS-GS-GS-SLR (VSKP-R)
Loco
TPTY- VSKP: BZA WAM-4
News    PNR    Forum    Time-Table    Availability    Fare Chart    Map    Arr/Dep History    Trips    Gallery    ΣChains    X/O    Timeline    
Travel Time: 6h 58m    10 halts    Distance: 326 km    Avg Speed: 46 km/hr
Type: Mail/Express
Zone: SCR/South Central
Departs @ 10:47 (Avg 29m late)
Platform# 1
 M   F 
Kesinga/KSNG 
Arrives @ 17:45 (Avg 26m late)
Platform# 6
 M   F 
Bilaspur Junction/BSP 

10 halts. 33 intermediate Stations between Kesinga and Bilaspur Junction

Show ALL intermediate Stations  Show Old Time-Table

#TrkCodeStation NameX/OArrivesAvgDepartsAvgHaltPFDay#KmSpeedElevZoneAddress
1/==/TPTYTirupati Main (5)  -10:35+231-1076.840150mSCRChittoor Distt, Andhra Pradesh
2/==/RURenigunta Junction (5)X  10:50+1510:52+182m--1-1066.963113mSCRChittoor District, Andhra Pradesh
3/==/KHTSri Kalahasti (2)  11:15 11:14+2411:16+241 2m21-1043.76768mSCRChittoor District, Andhra Pradesh
4/==/VKIVenkatagiri (3)  11:39 11:38+2311:40+241 2m11-1019.25577mSCRNellore District, Andhra Pradesh
5/==/VDDVendodu (2)  11:59 11:58+2012:00+191 2m--1-1002.71955mSCRNellore, Andhra Pradesh
6/==/GDRGudur Junction (3)X  13:00+613:05+85m21-983.58919mSCRGudur, Andhra Pradesh
7/==/NLRNellore (4)  13:31+2513:32+261m21-945.07121mSCRNellore, Andhra Pradesh
8/==/BTTRBitragunta (2)X  14:01+3014:02+341m11-910.75815mSCRBitragunta, Andhra Pradesh
9/==/KVZKavali (4)  14:19+3514:20+421m31-894.29121mSCRKavali, Andhra Pradesh
10/==/SKMSingarayakonda (2)X  14:45+5314:46+541m11-856.56426mSCRSingarayakonda, Andhra Pradesh
11/==/TNRTanguturu (3)  14:55+5114:56+511m11-846.94510mSCRTanguturu, Andhra Pradesh
12/==/OGLOngole (3)  15:21+3915:22+411m11-828.25312mSCROngole, Andhra Pradesh
13/==/ANBAmmanabrolu (3)  15:39+4415:40+451m--1-813.37716mSCRAmmanabrolu, Andhra Pradesh
14/==/CJMChinnaganjam (3)X  15:51+3315:52+331m--1-799.2759mSCRChinna Ganjam, Andhra Pradesh
15/==/VTMVetapalem (3)  16:02+4816:03+491m--1-786.8678mSCRVetapalem, Andhra Pradesh
16/==/CLXChirala (4)  16:10+3216:11+321m--1-778.9758mSCRChirala, Andhra Pradesh
17/==/BPPBapatla (3)  16:23+5516:24+551m--1-763.86910mSCRBapatla, Andhra Pradesh
18/==/NDONidubrolu (3)X  16:42+5416:43+541m--1-743.3709mSCRNidubrolu, Andhra Pradesh
19/==/TSRTsunduru (3)  16:52+5416:53+551m--1-732.84312mSCRTsunduru, Andhra Pradesh
20/==/TELTenali Junction (5)  17:09+5517:10+1:011m--1-721.24216mSCRTel: 08644-227834, Andhra Pradesh
21/==/DIGDuggirala (3)  17:24+1:1217:25+1:121m--1-711.52016mSCRDuggirala, Andhra Pradesh
22/==/BZAVijayawada Junction (10)  18:30+2318:50 18:45+2820 15m--1-690.03324mSCRVijayawada 520001, Andhra Pradesh
23|--|GDVGudivada Junction (3)X  20:03+3920:05+402m11-646.86111mSCRKrishna District, Andhra Pradesh
24|--|KKLRKaikaluru (2)X  20:34+5920:35+1:011m--1-617.5538mSCRKaikalur, Andhra Pradesh
25|--|AKVDAkividu (3)  20:54+1:0520:55+1:081m--1-600.8315mSCRCoast Andhra, Andhra Pradesh
26|--|BVRTBhimavaram Town (2)X  21:29+5721:30+561m11-583.2418mSCRBhimavaram, Andhra Pradesh
27|--|ALAttili (1)X  21:59+5822:00+591m11-563.43314mSCRWest Godavari, Andhra Pradesh
28|--|TNKUTanuku (2)  22:19+5322:20+541m--1-552.82112mSCR131, Andhra Pradesh
29|--|NDDNidadavolu Junction (3)  23:08+2623:09+331m--1-535.75120mSCRNidadavolu jtn ph.no. 08813-210325, Andhra Pradesh
30/==/KVRKovvur (3)  23:26+3723:27+371m11-521.32025mSCRWest Godavari, Andhra Pradesh
31/==/RJYRajahmundry (3)  23:50+2700:25+3335m31-513.57523mSCRRajahmundry ph.no. 0883-2420541, Andhra Pradesh
32/==/DWPDwarapudi (3)  00:41+4800:43+532m--2-493.64520mSCREast Godavari District, Andhra Pradesh
33/==/APTAnaparti (3)  00:48+5400:49+541m--2-489.88021mSCREast Godavari District, Andhra Pradesh
34/==/SLOSamalkot Junction (3)X  01:09+5701:10+581m12-463.36018mSCRSamalkot, Andhra Pradesh
35/==/PAPPithapuram (2)X  01:22+5801:23+581m--2-451.28322mSCREast Godavari District, Andhra Pradesh
36/==/ANVAnnavaram (3)O  01:41+1:2201:42+1:231m32-426.56727mSCREast Godavari District, Andhra Pradesh
37/==/TUNITuni (2)  01:57+5401:58+551m22-409.88024mSCRTuni ph.no. 08854-252172, Andhra Pradesh
38/==/YLMElamanchili (2)O  02:28+5202:29+521m--2-369.87923mSCRVisakhapatnam District, Andhra Pradesh
39/==/AKPAnakapalle (3)OO  02:47+002:48+01m32-346.01630mSCRAnakapalle ph.no . 08924-221698, Andhra Pradesh
40/==/DVDDuvvada (4)O  03:48+3304:00+2612m--2-330.01846mECoRVishakhapatnam District, Andhra Pradesh
41/==/VSKPVisakhapatnam Junction (8)XO04:55+505:15+920m42-313.73311mECoRVishakhapatnam 530001, Andhra Pradesh
42/==/SCMSimhachalam (2)X  05:31 05:30-05:32-1 2m--2-305.68327mECoRVisakhapatnam, Andhra Pradesh
43/==/KTVKottavalasa Junction (5)X  05:46 05:45+1905:47+221 2m--2-287.57558mECoRVizianagaram District, Andhra Pradesh
44/==/VZMVizianagaram Junction (5)X  06:15+2506:20+275m--2-252.57663mECoRVizianagaram, Andhra Pradesh
45%==%VBLBobbili Junction (2)X  07:03+2707:05+262m12-198.372137mECoRBobbili, Andhra Pradesh
46%==%PVPParvatipuram (3)  07:26 07:25+2507:27+251 2m--2-174.433122mECoRParvatipuram, Andhra Pradesh
47%==%PVPTParvatipuram Town  07:31 07:30-07:32-1 2m--2-172.757121mECoRParvatipuram, Andhra Pradesh
48%==%RGDARayagada (3)  08:20+1508:30+1310m--2-127.437229mECoRRayagada ph.no 06856-222407, Odisha
49%==%SPRDSingapuram Road (2)  08:46 08:45+1108:47+111 2m--2-118.251248mECoRJaykaypur, Odisha
50%==%THVTherubali  08:59 08:58+1809:00+191 2m--2-108.862270mECoRRayagada, Odisha
51%==%MNGDMuniguda  09:36 09:35+2309:37+231 2m--2-72.871335mECoRMuniguda, Odisha
52%==%AMBAmbodala  09:59 09:58+2410:00+231 2m--2-47.971374mECoRState Highway 6, Odisha
53%==%NRLRNorla RoadX  10:24 10:21+2410:25 10:22+251m--2-22.944247mECoRKalahandi, Odisha
54%==%RPRDRupra Road  10:34 10:31+2510:35 10:32+261m--2-16.275233mECoRKalahandi, Odisha
55%==%KSNGKesinga (1)»X  10:54 10:45+2910:55 10:47+291 2m120.036183mECoRKesinga, Odisha
56%=-|TIGTitlagarh Junction (3)X  11:10+2011:20+2810m--213.978212mECoRTitlagarh, Odisha
57|--|KBJKantabanji  11:45+4211:55+4010m--246.477283mECoRBolangir, Odisha
58|--|HSKHarishanker Road (2)  12:14 12:13+4612:15+461 2m--269.684335mECoRPin Code:767038, Odisha
59|--|NPDNawapara Road  12:39 12:36+4712:40 12:37+481m--299.154344mECoRNuapada District, Odisha
60|--|KRARKhariar Road  12:51 12:50+4312:52+431 2m--2110.770317mECoRJonk, Odisha
61|--|BGBRBagbahra  13:11 13:10+3613:12+361 2m--2131.757358mECoRBagbahra, Chhattisgarh
62|--|MSMDMahasamund  13:39 13:44+2613:40 13:45+261m--2162.340301mECoRMahasamund, Chhattisgarh
63|--|RRaipur Junction (6)XO15:05+1215:30+1125m--2215.974297mSECRRaipur, Chhattisgarh
64/==/TLDTilda (3)  16:02 16:01+2616:03+251 2m--2254.178 SECRBanjari Rd, Chhattisgarh
65/==/BYTBhatapara (4)XO  16:24 16:23+1816:25+201 2m--2280.135270mSECRBanjari Road, Chhattisgarh
66/==/BSPBilaspur Junction (8)•  17:45+26-62326.3-271mSECRBilaspur, Chhattisgarh
Scroll to Top
Scroll to Bottom